createdAt,value
2018-12-11T00:10:03.543Z,98.20
2018-12-11T00:38:10.087Z,99.20
2018-12-11T00:51:57.477Z,99.90
2018-12-11T00:54:43.007Z,99.90
2018-12-11T00:57:17.732Z,99.90
2018-12-11T01:02:48.752Z,99.90
2018-12-11T01:30:12.064Z,99.90
2018-12-11T01:38:22.462Z,99.90
2018-12-11T01:49:34.273Z,99.90
2018-12-11T01:52:19.817Z,99.90
2018-12-11T02:33:35.278Z,99.90
2018-12-11T02:44:53.045Z,99.90
2018-12-11T06:56:04.561Z,99.90
2018-12-11T06:58:34.382Z,99.90
2018-12-11T07:01:04.222Z,99.90
2018-12-11T07:03:33.957Z,99.90
2018-12-11T07:06:03.708Z,99.90
2018-12-11T07:08:33.457Z,99.90
2018-12-11T07:11:03.498Z,99.90
2018-12-11T07:13:33.297Z,99.90
2018-12-11T07:16:03.106Z,99.90
2018-12-11T07:18:33.032Z,99.90
2018-12-11T07:21:02.878Z,99.90
2018-12-11T07:23:32.681Z,99.90
2018-12-11T07:26:02.692Z,99.90
2018-12-11T07:28:32.531Z,99.90
2018-12-11T07:31:02.616Z,99.90
2018-12-11T07:33:32.491Z,99.90
2018-12-11T07:36:02.336Z,99.90
2018-12-11T07:38:32.156Z,99.90
2018-12-11T07:41:02.017Z,99.90
2018-12-11T07:43:31.746Z,99.90
2018-12-11T07:46:01.572Z,99.90
2018-12-11T07:48:31.351Z,99.90
2018-12-11T07:51:01.206Z,99.90
2018-12-11T07:53:30.990Z,99.90
2018-12-11T07:56:00.880Z,99.90
2018-12-11T07:58:30.702Z,99.90
2018-12-11T08:01:00.590Z,99.90
2018-12-11T08:03:30.377Z,99.90
2018-12-11T08:06:00.271Z,99.90
2018-12-11T08:08:30.101Z,99.90
2018-12-11T08:11:00.051Z,99.90
2018-12-11T08:13:29.872Z,99.90
2018-12-11T08:15:59.871Z,99.90
2018-12-11T08:18:29.720Z,99.90
2018-12-11T08:20:59.617Z,99.90
2018-12-11T08:23:29.397Z,99.90
2018-12-11T08:25:59.280Z,99.90
2018-12-11T08:28:29.242Z,99.90
2018-12-11T08:30:59.115Z,99.90
2018-12-11T08:33:28.960Z,99.90
2018-12-11T08:35:58.800Z,99.90
2018-12-11T08:38:28.635Z,99.90
2018-12-11T08:40:58.607Z,99.90
2018-12-11T08:43:28.315Z,99.90
2018-12-11T08:45:58.310Z,99.90
2018-12-11T08:48:28.171Z,99.90
2018-12-11T08:50:58.185Z,99.90
2018-12-11T08:53:28.266Z,99.90
2018-12-11T08:55:58.236Z,99.90
2018-12-11T08:58:28.072Z,99.90
2018-12-11T09:00:58.155Z,99.90
2018-12-11T09:03:28.132Z,99.90
2018-12-11T09:05:57.931Z,99.90
2018-12-11T09:08:27.676Z,99.90
2018-12-11T09:10:57.569Z,99.90
2018-12-11T09:13:27.399Z,99.90
2018-12-11T09:15:57.746Z,99.90
2018-12-11T09:18:27.681Z,99.90
2018-12-11T09:20:57.691Z,99.90
2018-12-11T09:23:27.601Z,99.90
2018-12-11T09:25:57.735Z,99.90
2018-12-11T09:28:27.667Z,99.90
2018-12-11T09:30:57.481Z,99.90
2018-12-11T09:33:27.306Z,99.70
2018-12-11T09:35:57.061Z,99.90
2018-12-11T09:38:27.151Z,99.80
2018-12-11T09:40:57.132Z,99.40
2018-12-11T09:43:26.951Z,97.40
2018-12-11T09:45:56.756Z,97.10
2018-12-11T09:48:26.621Z,98.10
2018-12-11T09:50:56.573Z,99.90
2018-12-11T09:53:26.366Z,99.90
2018-12-11T09:55:56.241Z,99.80
2018-12-11T09:58:26.121Z,99.20
2018-12-11T10:00:55.981Z,99.90
2018-12-11T10:03:25.804Z,99.50
2018-12-11T10:05:55.716Z,99.80
2018-12-11T10:08:25.911Z,99.90
2018-12-11T10:10:55.686Z,99.90
2018-12-11T10:13:25.562Z,99.90
2018-12-11T10:15:55.373Z,99.60
2018-12-11T10:18:25.202Z,98.80
2018-12-11T10:20:55.087Z,98.60
2018-12-11T10:23:25.048Z,99.40
2018-12-11T10:25:54.827Z,99.90
2018-12-11T10:28:24.877Z,99.00
2018-12-11T10:30:54.751Z,99.70
2018-12-11T10:33:24.553Z,99.70
2018-12-11T10:35:54.406Z,99.30
2018-12-11T10:38:24.281Z,98.10
2018-12-11T10:40:54.226Z,99.20
2018-12-11T10:43:24.192Z,98.20
2018-12-11T10:45:54.311Z,97.40
2018-12-11T10:48:24.216Z,96.70
2018-12-11T10:50:54.072Z,96.00
2018-12-11T10:53:24.026Z,96.90
2018-12-11T10:55:53.956Z,94.60
2018-12-11T10:58:24.045Z,93.80
2018-12-11T11:00:58.701Z,93.30
2018-12-11T11:03:28.546Z,92.60
2018-12-11T11:05:58.521Z,92.30
2018-12-11T11:08:28.428Z,91.50
2018-12-11T11:10:58.331Z,91.30
2018-12-11T11:13:28.251Z,91.00
2018-12-11T11:15:58.200Z,86.80
2018-12-11T11:18:28.111Z,89.70
2018-12-11T11:20:58.022Z,82.80
2018-12-11T11:23:28.212Z,90.70
2018-12-11T11:25:58.072Z,83.40
2018-12-11T11:28:27.940Z,87.40
2018-12-11T11:30:57.787Z,86.80
2018-12-11T11:33:27.613Z,80.20
2018-12-11T11:35:57.477Z,80.10
2018-12-11T11:38:27.372Z,83.20
2018-12-11T11:40:57.206Z,83.00
2018-12-11T11:43:27.067Z,86.50
2018-12-11T11:45:56.926Z,84.70
2018-12-11T11:48:26.757Z,83.10
2018-12-11T11:50:56.752Z,86.50
2018-12-11T11:53:26.687Z,83.50
2018-12-11T11:55:56.512Z,82.90
2018-12-11T11:58:26.431Z,80.30
2018-12-11T12:00:56.332Z,82.00
2018-12-11T12:03:26.378Z,79.00
2018-12-11T12:05:56.273Z,82.30
2018-12-11T12:08:26.602Z,79.90
2018-12-11T12:10:56.387Z,79.70
2018-12-11T12:13:26.307Z,83.20
2018-12-11T12:15:56.208Z,76.60
2018-12-11T12:18:26.053Z,80.40
2018-12-11T12:20:55.822Z,76.40
2018-12-11T12:23:25.548Z,81.80
2018-12-11T12:25:55.363Z,79.30
2018-12-11T12:28:25.243Z,81.40
2018-12-11T12:30:57.432Z,78.50
2018-12-11T12:33:27.213Z,75.10
2018-12-11T12:35:56.988Z,76.50
2018-12-11T12:38:26.867Z,75.10
2018-12-11T12:40:56.648Z,74.10
2018-12-11T12:43:26.398Z,77.60
2018-12-11T12:45:56.167Z,78.10
2018-12-11T12:48:25.952Z,77.60
2018-12-11T12:50:55.794Z,78.20
2018-12-11T12:53:25.572Z,77.30
2018-12-11T12:55:55.442Z,79.90
2018-12-11T12:58:25.392Z,76.10
2018-12-11T13:00:55.587Z,76.30
2018-12-11T13:03:26.449Z,75.30
2018-12-11T13:05:56.270Z,73.40
2018-12-11T13:08:26.032Z,74.20
2018-12-11T13:10:55.934Z,71.20
2018-12-11T13:13:25.753Z,70.70
2018-12-11T13:15:55.601Z,72.10
2018-12-11T13:18:25.392Z,70.40
2018-12-11T13:20:55.190Z,70.30
2018-12-11T13:23:25.002Z,67.00
2018-12-11T13:25:54.936Z,66.80
2018-12-11T13:28:24.792Z,68.70
2018-12-11T13:30:54.736Z,78.30
2018-12-11T13:33:24.700Z,77.20
2018-12-11T13:35:54.702Z,75.80
2018-12-11T13:38:24.632Z,76.20
2018-12-11T13:40:54.946Z,76.30
2018-12-11T13:43:25.101Z,75.90
2018-12-11T13:45:54.991Z,77.30
2018-12-11T13:48:25.041Z,72.50
2018-12-11T13:50:54.996Z,69.70
2018-12-11T13:53:24.953Z,70.00
2018-12-11T13:55:54.823Z,71.20
2018-12-11T13:58:24.701Z,73.80
2018-12-11T14:00:54.541Z,73.50
2018-12-11T14:03:24.392Z,68.90
2018-12-11T14:05:54.371Z,70.50
2018-12-11T14:08:24.151Z,68.30
2018-12-11T14:10:54.267Z,67.50
2018-12-11T14:13:24.112Z,70.80
2018-12-11T14:15:54.117Z,70.00
2018-12-11T14:18:23.882Z,67.30
2018-12-11T14:20:53.771Z,67.10
2018-12-11T14:23:23.682Z,67.00
2018-12-11T14:25:53.776Z,70.50
2018-12-11T14:28:23.636Z,73.80
2018-12-11T14:30:53.521Z,74.50
2018-12-11T14:33:23.476Z,74.90
2018-12-11T14:35:53.447Z,76.00
2018-12-11T14:38:23.431Z,76.60
2018-12-11T14:40:53.341Z,78.80
2018-12-11T14:43:23.197Z,80.10
2018-12-11T14:45:53.098Z,78.20
2018-12-11T14:48:22.967Z,77.80
2018-12-11T14:50:52.941Z,79.60
2018-12-11T14:53:22.817Z,81.10
2018-12-11T14:55:52.812Z,83.10
2018-12-11T14:58:22.658Z,86.20
2018-12-11T15:00:52.526Z,89.20
2018-12-11T15:03:22.402Z,89.50
2018-12-11T15:05:52.453Z,84.90
2018-12-11T15:08:22.267Z,86.00
2018-12-11T15:10:52.897Z,85.80
2018-12-11T15:13:22.813Z,87.60
2018-12-11T15:15:52.732Z,84.70
2018-12-11T15:18:22.716Z,87.10
2018-12-11T15:20:52.636Z,86.10
2018-12-11T15:23:22.742Z,84.50
2018-12-11T15:25:52.706Z,85.40
2018-12-11T15:28:22.461Z,85.10
2018-12-11T15:31:01.851Z,90.30
2018-12-11T15:33:31.727Z,92.40
2018-12-11T15:36:01.739Z,93.90
2018-12-11T15:38:31.717Z,95.50
2018-12-11T15:41:01.894Z,97.30
2018-12-11T15:43:32.017Z,98.30
2018-12-11T15:46:01.864Z,99.00
2018-12-11T15:48:31.746Z,99.50
2018-12-11T15:51:01.636Z,99.90
2018-12-11T15:53:31.583Z,99.90
2018-12-11T15:56:01.406Z,99.90
2018-12-11T15:58:31.277Z,99.90
2018-12-11T16:01:01.322Z,99.90
2018-12-11T16:03:31.311Z,99.90
2018-12-11T16:06:01.163Z,99.90
2018-12-11T16:08:31.138Z,99.90
2018-12-11T16:11:00.987Z,99.90
2018-12-11T16:13:30.931Z,99.90
2018-12-11T16:16:02.797Z,99.90
2018-12-11T16:18:32.741Z,99.90
2018-12-11T16:21:02.911Z,99.90
2018-12-11T16:23:32.811Z,99.90
2018-12-11T16:26:02.614Z,99.90
2018-12-11T16:28:32.532Z,99.90
2018-12-11T16:31:02.582Z,99.90
2018-12-11T16:33:32.432Z,99.90
2018-12-11T16:36:02.322Z,99.90
2018-12-11T16:38:32.161Z,99.90
2018-12-11T16:41:02.096Z,99.90
2018-12-11T16:43:31.978Z,99.90
2018-12-11T16:46:02.053Z,99.90
2018-12-11T16:48:32.222Z,99.90
2018-12-11T16:51:02.222Z,99.90
2018-12-11T16:53:32.272Z,99.90
2018-12-11T16:56:02.452Z,99.90
2018-12-11T16:58:32.522Z,99.90
2018-12-11T17:01:02.567Z,99.90
2018-12-11T17:03:32.452Z,99.90
2018-12-11T17:06:02.422Z,99.90
2018-12-11T17:08:32.368Z,99.90
2018-12-11T17:11:02.298Z,99.90
2018-12-11T17:13:32.223Z,99.90
2018-12-11T17:16:02.128Z,99.90
2018-12-11T17:18:32.149Z,99.90
2018-12-11T17:21:02.134Z,99.90
2018-12-11T17:23:32.063Z,99.90
2018-12-11T17:26:02.209Z,99.90
2018-12-11T17:28:32.168Z,99.90
2018-12-11T17:31:02.233Z,99.90
2018-12-11T17:33:32.139Z,99.90
2018-12-11T17:36:02.103Z,99.90
2018-12-11T17:38:32.121Z,99.90
2018-12-11T17:41:03.248Z,99.90
2018-12-11T17:43:33.144Z,99.90
2018-12-11T17:46:03.153Z,99.90
2018-12-11T17:48:33.119Z,99.90
2018-12-11T17:51:05.401Z,99.90
2018-12-11T17:53:35.398Z,99.90
2018-12-11T17:56:05.388Z,99.90
2018-12-11T17:58:35.411Z,99.90
2018-12-11T18:01:05.699Z,99.90
2018-12-11T18:03:35.689Z,99.90
2018-12-11T18:06:05.663Z,99.90
2018-12-11T18:08:35.640Z,99.90
2018-12-11T18:11:05.464Z,99.90
2018-12-11T18:13:35.395Z,99.90
2018-12-11T18:16:05.574Z,99.90
2018-12-11T18:18:35.600Z,99.90
2018-12-11T18:21:05.769Z,99.90
2018-12-11T18:23:36.629Z,99.90
2018-12-11T18:26:06.584Z,99.90
2018-12-11T18:28:36.483Z,99.90
2018-12-11T18:31:06.409Z,99.90
2018-12-11T18:33:36.379Z,99.90
2018-12-11T18:36:06.384Z,99.90
2018-12-11T18:38:36.230Z,99.90
2018-12-11T18:41:06.229Z,99.90
2018-12-11T18:43:36.128Z,99.90
2018-12-11T18:49:27.699Z,99.90
2018-12-11T18:51:57.649Z,99.90
2018-12-11T18:54:27.538Z,99.90
2018-12-11T18:56:57.344Z,99.90
2018-12-11T18:59:27.334Z,99.90
2018-12-11T19:01:57.349Z,99.90
2018-12-11T19:04:27.299Z,99.90
2018-12-11T19:06:57.224Z,99.90
2018-12-11T19:09:27.444Z,99.90
2018-12-11T19:11:57.484Z,99.90
2018-12-11T19:14:27.494Z,99.90
2018-12-11T19:16:57.983Z,99.90
2018-12-11T19:19:28.169Z,99.90
2018-12-11T19:21:58.539Z,99.90
2018-12-11T19:24:33.423Z,99.90
2018-12-11T19:27:03.743Z,99.90
2018-12-11T19:29:34.068Z,99.90
2018-12-11T19:32:04.264Z,99.90
2018-12-11T19:34:34.379Z,99.90
2018-12-11T19:37:04.579Z,99.90
2018-12-11T19:39:34.904Z,99.90
2018-12-11T19:42:05.219Z,99.90
2018-12-11T19:44:35.469Z,99.90
2018-12-11T19:47:05.503Z,99.90
2018-12-11T19:49:35.508Z,99.90
2018-12-11T19:52:05.599Z,99.90
2018-12-11T19:54:35.988Z,99.90
2018-12-11T19:57:06.073Z,99.90
2018-12-11T19:59:36.178Z,99.90
2018-12-11T20:02:06.262Z,99.90
2018-12-11T20:04:36.293Z,99.90
2018-12-11T20:07:06.308Z,99.90
2018-12-11T20:09:38.861Z,99.90
2018-12-11T20:12:08.898Z,99.90
2018-12-11T20:14:39.003Z,99.90
2018-12-11T20:17:09.287Z,99.90
2018-12-11T20:19:39.557Z,99.90
2018-12-11T20:22:09.817Z,99.90
2018-12-11T20:24:40.296Z,99.90
2018-12-11T20:27:10.543Z,99.90
2018-12-11T20:29:41.571Z,99.90
2018-12-11T20:32:11.867Z,99.90
2018-12-11T20:34:42.179Z,99.90
2018-12-11T20:37:12.583Z,99.90
2018-12-11T20:39:42.643Z,99.90
2018-12-11T20:42:12.733Z,99.90
2018-12-11T20:44:42.757Z,99.90
2018-12-11T20:47:12.690Z,99.90
2018-12-11T20:49:42.986Z,99.90
2018-12-11T20:52:13.379Z,99.90
2018-12-11T20:54:44.276Z,99.90
2018-12-11T20:57:14.594Z,99.90
2018-12-11T20:59:44.913Z,99.90
2018-12-11T21:02:18.521Z,99.90
2018-12-11T21:04:52.239Z,99.90
2018-12-11T21:07:22.142Z,99.90
2018-12-11T21:09:52.166Z,99.90
2018-12-11T21:12:22.538Z,99.90
2018-12-11T21:14:52.506Z,99.90
2018-12-11T21:17:22.727Z,99.90
2018-12-11T21:19:52.814Z,99.90
2018-12-11T21:22:22.852Z,99.90
2018-12-11T21:24:53.098Z,99.90
2018-12-11T21:27:23.232Z,99.90
2018-12-11T21:29:53.477Z,99.90
2018-12-11T21:32:23.616Z,99.90
2018-12-11T21:34:53.847Z,99.90
2018-12-11T21:37:23.837Z,99.90
2018-12-11T21:39:53.988Z,99.90
2018-12-11T21:42:24.002Z,99.90
2018-12-11T21:44:53.952Z,99.90
2018-12-11T21:47:24.017Z,99.90
2018-12-11T21:49:54.493Z,99.90
2018-12-11T21:52:24.446Z,99.90
2018-12-11T21:54:54.594Z,99.90
2018-12-11T21:57:24.587Z,99.90
2018-12-11T21:59:57.362Z,99.90
2018-12-11T22:02:27.577Z,99.90
2018-12-11T22:04:57.662Z,99.90
2018-12-11T22:07:27.717Z,99.90
2018-12-11T22:09:57.680Z,99.90
2018-12-11T22:12:28.232Z,99.90
2018-12-11T22:14:58.362Z,99.90
2018-12-11T22:17:28.217Z,99.90
2018-12-11T22:19:58.132Z,99.90
2018-12-11T22:22:28.132Z,99.90
2018-12-11T22:24:58.392Z,99.90
2018-12-11T22:27:28.658Z,99.90
2018-12-11T22:29:58.567Z,99.90
2018-12-11T22:32:28.497Z,99.90
2018-12-11T22:34:58.428Z,99.90
2018-12-11T22:37:28.306Z,99.90
2018-12-11T22:39:58.478Z,99.90
2018-12-11T22:42:28.537Z,99.90
2018-12-11T22:44:58.447Z,99.90
2018-12-11T22:47:28.612Z,99.90
2018-12-11T22:49:58.962Z,99.90
2018-12-11T22:52:29.206Z,99.90
2018-12-11T22:54:59.242Z,99.90
2018-12-11T22:57:29.322Z,99.90
2018-12-11T22:59:59.467Z,99.90
2018-12-11T23:02:29.396Z,99.90
2018-12-11T23:04:59.297Z,99.90
2018-12-11T23:07:29.207Z,99.90
2018-12-11T23:09:58.989Z,99.90
2018-12-11T23:12:28.898Z,99.90
2018-12-11T23:14:58.867Z,99.90
2018-12-11T23:17:28.676Z,99.90
2018-12-11T23:19:58.446Z,99.90
2018-12-11T23:22:28.256Z,99.90
2018-12-11T23:24:58.246Z,99.90
2018-12-11T23:27:28.046Z,99.90
2018-12-11T23:29:58.112Z,99.90
2018-12-11T23:32:27.974Z,99.90
2018-12-11T23:34:57.973Z,99.90
2018-12-11T23:37:27.781Z,99.90
2018-12-11T23:39:57.734Z,99.90
2018-12-11T23:42:27.746Z,99.90
2018-12-11T23:44:57.762Z,99.90
2018-12-11T23:47:27.586Z,99.90
2018-12-11T23:49:57.397Z,99.90
2018-12-11T23:52:27.287Z,99.90
2018-12-11T23:54:57.147Z,99.90
2018-12-11T23:57:26.992Z,99.90
2018-12-11T23:59:56.952Z,99.90
